Terminal Aerodrome Forecast
Issued by NWS

Home | Current Version | Previous Version | Text Only | Print | Product List | Glossary On
Versions: 1 2 3 4 5 6 7 8 9 10 11 12 13 14 15 16 17 18 19
301
FTUS43 KLSX 230520
TAFSUS
TAF
KSUS 230520Z 2306/2406 24004KT P6SM VCTS BKN050CB
      TEMPO 2308/2310 VRB15G35KT 2SM TSRA BKN025CB
     FM231100 29004KT P6SM BKN050
     FM231900 VRB03KT P6SM SCT250
     FM240000 30004KT P6SM FEW050=

USA.gov is the U.S. government's official web portal to all federal, state and local government web resources and services.